Time;durP1;ratioP1;P1;durP2;ratioP2;P2;SDS_P1;SDS_P2;PMS_P1;PMS_P2;Temp;Humidity;BMP_temperature;BMP_pressure;BME280_temperature;BME280_humidity;BME280_pressure;Samples;Min_cycle;Max_cycle;Signal;HPM_P1;HPM_P2
2023/06/21 00:01:04;;;;;;;;;;;23.90;57.20;;;;;;6245874;22;19908;-82
2023/06/21 00:03:30;;;;;;;;;;;23.80;57.40;;;;;;6246812;22;19946;-83
2023/06/21 00:05:56;;;;;;;;;;;23.70;57.60;;;;;;6219277;23;19986;-83
2023/06/21 00:08:22;;;;;;;;;;;23.70;57.90;;;;;;6246703;22;19990;-84
2023/06/21 00:10:49;;;;;;;;;;;23.60;58.00;;;;;;6219012;23;19907;-79
2023/06/21 00:13:15;;;;;;;;;;;23.50;58.20;;;;;;6245097;22;19915;-82
2023/06/21 00:15:41;;;;;;;;;;;23.50;58.40;;;;;;6244424;23;19908;-83
2023/06/21 00:18:07;;;;;;;;;;;23.40;58.50;;;;;;6246594;22;20305;-80
2023/06/21 00:20:33;;;;;;;;;;;23.40;58.60;;;;;;6246004;22;19913;-80
2023/06/21 00:22:58;;;;;;;;;;;23.40;58.60;;;;;;6219602;23;19915;-79
2023/06/21 00:25:24;;;;;;;;;;;23.30;58.90;;;;;;6244344;23;19911;-83
2023/06/21 00:27:50;;;;;;;;;;;23.20;59.00;;;;;;6219609;23;19921;-84
2023/06/21 00:30:16;;;;;;;;;;;23.20;58.70;;;;;;6246005;22;19912;-83
2023/06/21 00:32:42;;;;;;;;;;;23.20;59.30;;;;;;6219615;23;19922;-80
2023/06/21 00:35:08;;;;;;;;;;;23.10;59.40;;;;;;6218876;23;19991;-84
2023/06/21 00:37:37;;;;;;;;;;;23.20;59.30;;;;;;6244963;23;19915;-84
2023/06/21 00:40:07;;;;;;;;;;;23.10;59.40;;;;;;6246423;22;19908;-86
2023/06/21 00:42:33;;;;;;;;;;;23.10;59.60;;;;;;6244872;23;19916;-80
2023/06/21 00:44:59;;;;;;;;;;;23.10;59.00;;;;;;6244724;23;20352;-84
2023/06/21 00:47:25;;;;;;;;;;;23.00;59.80;;;;;;6250626;22;19993;-84
2023/06/21 00:49:51;;;;;;;;;;;23.00;59.80;;;;;;6252245;22;19952;-80
2023/06/21 00:52:18;;;;;;;;;;;23.00;60.00;;;;;;6278397;22;19911;-84
2023/06/21 00:54:44;;;;;;;;;;;22.90;59.80;;;;;;6252405;22;19907;-85
2023/06/21 00:57:11;;;;;;;;;;;22.90;60.20;;;;;;6225849;22;20381;-81
2023/06/21 00:59:38;;;;;;;;;;;22.90;60.30;;;;;;6252638;22;20287;-84
2023/06/21 01:02:05;;;;;;;;;;;22.80;59.60;;;;;;6225807;22;19907;-79
2023/06/21 01:04:32;;;;;;;;;;;22.80;59.50;;;;;;6252173;22;19982;-79
2023/06/21 01:07:36;;;;;;;;;;;22.80;60.00;;;;;;6226104;22;20263;-85
2023/06/21 01:10:39;;;;;;;;;;;22.80;60.00;;;;;;6251685;22;19915;-79
2023/06/21 01:13:29;;;;;;;;;;;22.80;60.00;;;;;;6251186;22;19915;-79
2023/06/21 01:16:02;;;;;;;;;;;22.70;60.50;;;;;;6278071;22;19942;-84
2023/06/21 01:18:29;;;;;;;;;;;22.60;60.70;;;;;;6252186;22;20267;-79
2023/06/21 01:20:57;;;;;;;;;;;22.50;61.10;;;;;;6225762;22;19953;-83
2023/06/21 01:24:00;;;;;;;;;;;22.40;61.30;;;;;;6252104;22;19915;-79
2023/06/21 01:27:04;;;;;;;;;;;22.40;61.20;;;;;;6278509;22;20328;-85
2023/06/21 01:29:49;;;;;;;;;;;22.30;61.40;;;;;;6251590;22;19997;-85
2023/06/21 01:32:16;;;;;;;;;;;22.30;61.60;;;;;;6251356;22;19911;-84
2023/06/21 01:34:42;;;;;;;;;;;22.20;61.60;;;;;;6251477;22;19918;-80
2023/06/21 01:37:27;;;;;;;;;;;22.20;61.60;;;;;;6251023;22;19907;-85
2023/06/21 01:39:53;;;;;;;;;;;22.20;61.50;;;;;;6244018;22;20305;-79
2023/06/21 01:42:19;;;;;;;;;;;22.20;61.40;;;;;;6225705;22;19969;-80
2023/06/21 01:44:46;;;;;;;;;;;22.20;61.60;;;;;;6251840;22;19915;-82
2023/06/21 01:47:12;;;;;;;;;;;22.10;61.40;;;;;;6245811;23;19911;-84
2023/06/21 01:49:57;;;;;;;;;;;22.10;61.40;;;;;;6246554;23;20253;-84
2023/06/21 01:52:24;;;;;;;;;;;22.10;61.50;;;;;;6245655;23;19918;-84
2023/06/21 01:54:51;;;;;;;;;;;22.10;61.00;;;;;;6221321;23;20321;-78
2023/06/21 01:57:17;;;;;;;;;;;22.10;61.50;;;;;;6220151;23;19970;-79
2023/06/21 01:59:43;;;;;;;;;;;22.10;61.80;;;;;;6246268;23;19982;-83
2023/06/21 02:02:09;;;;;;;;;;;22.00;62.10;;;;;;6220322;23;19914;-79
2023/06/21 02:04:38;;;;;;;;;;;22.00;61.90;;;;;;6246299;23;19990;-79
2023/06/21 02:07:05;;;;;;;;;;;22.00;61.80;;;;;;6246957;22;19907;-84
2023/06/21 02:09:31;;;;;;;;;;;21.90;62.00;;;;;;6246247;23;19954;-84
2023/06/21 02:12:10;;;;;;;;;;;;;;;;;;;;;
2023/06/21 02:14:37;;;;;;;;;;;21.80;62.30;;;;;;6246368;23;20002;-79
2023/06/21 02:17:04;;;;;;;;;;;21.70;62.90;;;;;;6245625;23;19907;-84
2023/06/21 02:19:30;;;;;;;;;;;21.60;62.30;;;;;;6246090;22;19958;-85
2023/06/21 02:22:15;;;;;;;;;;;21.70;63.00;;;;;;6220295;23;19912;-87
2023/06/21 02:24:41;;;;;;;;;;;21.60;63.10;;;;;;6246041;23;19915;-85
2023/06/21 02:27:08;;;;;;;;;;;21.60;62.90;;;;;;6245489;23;19915;-79
2023/06/21 02:29:34;;;;;;;;;;;21.60;62.80;;;;;;6246198;22;19966;-79
2023/06/21 02:32:00;;;;;;;;;;;21.60;62.70;;;;;;6245408;23;19911;-85
2023/06/21 02:34:26;;;;;;;;;;;21.60;62.80;;;;;;6220731;23;19973;-80
2023/06/21 02:39:37;;;;;;;;;;;21.60;62.70;;;;;;6246256;23;19942;-79
2023/06/21 02:42:03;;;;;;;;;;;21.60;62.60;;;;;;6245667;23;19951;-85
2023/06/21 02:44:29;;;;;;;;;;;21.60;62.60;;;;;;6247371;22;20227;-85
2023/06/21 02:46:56;;;;;;;;;;;21.60;62.80;;;;;;6224779;22;19946;-84
2023/06/21 02:49:23;;;;;;;;;;;21.50;63.10;;;;;;6225887;22;19919;-80
2023/06/21 02:51:50;;;;;;;;;;;21.40;63.00;;;;;;6250266;22;20295;-78
2023/06/21 02:54:16;;;;;;;;;;;21.30;63.10;;;;;;6251401;22;19915;-86
2023/06/21 02:56:43;;;;;;;;;;;21.30;62.90;;;;;;6250163;22;19943;-79
2023/06/21 02:59:09;;;;;;;;;;;21.10;63.40;;;;;;6277932;22;20306;-85
2023/06/21 03:01:36;;;;;;;;;;;21.10;63.70;;;;;;6224831;22;20245;-85
2023/06/21 03:04:02;;;;;;;;;;;21.00;63.30;;;;;;6250838;22;20341;-85
2023/06/21 03:06:29;;;;;;;;;;;20.90;63.50;;;;;;6250351;22;19908;-80
2023/06/21 03:09:14;;;;;;;;;;;20.90;64.20;;;;;;6225229;22;20249;-79
2023/06/21 03:11:40;;;;;;;;;;;21.00;63.80;;;;;;6250034;22;20356;-79
2023/06/21 03:14:06;;;;;;;;;;;21.00;63.60;;;;;;6250472;22;19922;-80
2023/06/21 03:16:34;;;;;;;;;;;21.10;63.50;;;;;;6250187;22;19946;-85
2023/06/21 03:19:00;;;;;;;;;;;21.10;63.40;;;;;;6250946;22;20343;-79
2023/06/21 03:21:26;;;;;;;;;;;21.10;63.30;;;;;;6277110;22;19907;-81
2023/06/21 03:23:52;;;;;;;;;;;21.00;63.50;;;;;;6250781;22;19986;-78
2023/06/21 03:26:18;;;;;;;;;;;21.00;63.70;;;;;;6225028;22;19938;-79
2023/06/21 03:28:44;;;;;;;;;;;20.80;64.00;;;;;;6250769;22;20291;-80
2023/06/21 03:31:10;;;;;;;;;;;20.90;64.10;;;;;;6277525;22;19986;-83
2023/06/21 03:33:36;;;;;;;;;;;20.90;64.00;;;;;;6250758;22;19908;-84
2023/06/21 03:36:03;;;;;;;;;;;21.00;63.80;;;;;;6224548;22;20279;-83
2023/06/21 03:38:30;;;;;;;;;;;21.00;63.60;;;;;;6250426;22;19922;-85
2023/06/21 03:40:56;;;;;;;;;;;21.00;63.40;;;;;;6277390;22;20276;-84
2023/06/21 03:43:21;;;;;;;;;;;21.00;63.50;;;;;;6250282;22;19907;-84
2023/06/21 03:45:47;;;;;;;;;;;21.00;63.60;;;;;;6250040;22;19943;-83
2023/06/21 03:48:13;;;;;;;;;;;21.10;63.70;;;;;;6224836;22;19980;-84
2023/06/21 03:50:39;;;;;;;;;;;21.10;63.70;;;;;;6249834;22;20295;-83
2023/06/21 03:53:05;;;;;;;;;;;21.10;63.70;;;;;;6250345;22;20285;-79
2023/06/21 03:55:31;;;;;;;;;;;21.10;63.50;;;;;;6249729;22;19913;-84
2023/06/21 03:57:57;;;;;;;;;;;21.10;64.50;;;;;;6224884;22;19919;-85
2023/06/21 04:00:23;;;;;;;;;;;21.10;63.60;;;;;;6276876;22;19990;-79
2023/06/21 04:02:49;;;;;;;;;;;21.20;63.60;;;;;;6250544;22;20317;-79
2023/06/21 04:05:15;;;;;;;;;;;21.20;63.60;;;;;;6249577;22;19907;-84
2023/06/21 04:07:41;;;;;;;;;;;21.20;63.50;;;;;;6277075;22;19915;-79
2023/06/21 04:10:09;;;;;;;;;;;21.30;63.60;;;;;;6224484;22;20351;-84
2023/06/21 04:12:36;;;;;;;;;;;21.20;63.50;;;;;;6250909;22;19965;-85
2023/06/21 04:15:03;;;;;;;;;;;21.20;63.90;;;;;;6250238;22;19952;-79
2023/06/21 04:17:29;;;;;;;;;;;21.20;63.50;;;;;;6224761;22;19938;-85
2023/06/21 04:19:55;;;;;;;;;;;21.20;64.00;;;;;;6277146;22;19911;-80
2023/06/21 04:22:23;;;;;;;;;;;21.10;63.60;;;;;;6249843;22;19922;-86
2023/06/21 04:24:50;;;;;;;;;;;21.10;64.30;;;;;;6276127;22;20313;-79
2023/06/21 04:27:16;;;;;;;;;;;21.10;64.30;;;;;;6249285;22;19915;-85
2023/06/21 04:29:41;;;;;;;;;;;21.10;63.70;;;;;;6250241;22;19930;-83
2023/06/21 04:32:08;;;;;;;;;;;21.30;64.30;;;;;;6276833;22;19923;-85
2023/06/21 04:34:35;;;;;;;;;;;21.30;63.80;;;;;;6249977;22;19914;-81
2023/06/21 04:37:05;;;;;;;;;;;21.30;63.70;;;;;;6249413;22;20321;-84
2023/06/21 04:39:31;;;;;;;;;;;21.40;63.70;;;;;;6250628;22;20314;-84
2023/06/21 04:41:59;;;;;;;;;;;21.40;63.80;;;;;;6249409;22;19915;-81
2023/06/21 04:44:27;;;;;;;;;;;21.50;63.80;;;;;;6250347;22;19930;-79
2023/06/21 04:46:54;;;;;;;;;;;21.50;63.70;;;;;;6249845;22;19915;-79
2023/06/21 04:49:20;;;;;;;;;;;21.50;63.70;;;;;;6249785;22;19907;-79
2023/06/21 04:51:46;;;;;;;;;;;21.60;63.90;;;;;;6223683;22;19915;-79
2023/06/21 04:54:12;;;;;;;;;;;21.70;63.80;;;;;;6249935;22;19911;-79
2023/06/21 04:56:38;;;;;;;;;;;21.80;63.40;;;;;;6249057;22;19915;-84
2023/06/21 04:59:04;;;;;;;;;;;21.90;63.40;;;;;;6249843;22;19907;-82
2023/06/21 05:01:31;;;;;;;;;;;22.00;63.20;;;;;;6224118;22;19990;-79
2023/06/21 05:03:57;;;;;;;;;;;22.10;62.70;;;;;;6249823;22;20156;-84
2023/06/21 05:06:25;;;;;;;;;;;22.10;62.00;;;;;;6249472;22;19972;-78
2023/06/21 05:08:53;;;;;;;;;;;22.20;62.70;;;;;;6249966;22;19922;-84
2023/06/21 05:11:19;;;;;;;;;;;22.20;62.80;;;;;;6249807;22;19930;-79
2023/06/21 05:13:45;;;;;;;;;;;22.30;62.30;;;;;;6249571;22;19907;-83
2023/06/21 05:16:11;;;;;;;;;;;22.40;62.00;;;;;;6249307;22;19952;-80
2023/06/21 05:18:38;;;;;;;;;;;22.40;61.90;;;;;;6276582;22;20272;-82
2023/06/21 05:21:05;;;;;;;;;;;22.50;61.80;;;;;;6276055;22;19907;-79
2023/06/21 05:23:31;;;;;;;;;;;22.60;61.60;;;;;;6224240;22;19907;-79
2023/06/21 05:25:57;;;;;;;;;;;22.70;61.60;;;;;;6276068;22;19913;-79
2023/06/21 05:28:22;;;;;;;;;;;22.70;61.20;;;;;;6249961;22;19921;-84
2023/06/21 05:30:48;;;;;;;;;;;22.80;60.80;;;;;;6276345;22;20242;-81
2023/06/21 05:33:14;;;;;;;;;;;22.90;60.70;;;;;;6277991;22;19915;-83
2023/06/21 05:35:41;;;;;;;;;;;22.90;60.40;;;;;;6278152;22;19927;-81
2023/06/21 05:38:08;;;;;;;;;;;23.00;60.00;;;;;;6251635;22;19993;-78
2023/06/21 05:40:34;;;;;;;;;;;23.10;59.80;;;;;;6226155;22;19907;-84
2023/06/21 05:45:44;;;;;;;;;;;23.30;59.20;;;;;;6255006;22;19953;-79
2023/06/21 05:48:10;;;;;;;;;;;23.40;58.60;;;;;;6251412;22;19915;-83
2023/06/21 05:50:36;;;;;;;;;;;23.50;58.60;;;;;;6250994;22;19908;-84
2023/06/21 05:53:02;;;;;;;;;;;23.60;58.30;;;;;;6251683;22;19947;-80
2023/06/21 05:55:28;;;;;;;;;;;23.70;58.10;;;;;;6250780;22;19989;-79
2023/06/21 05:57:54;;;;;;;;;;;23.90;57.80;;;;;;6251103;22;20236;-83
2023/06/21 06:00:20;;;;;;;;;;;24.00;57.50;;;;;;6277627;22;19922;-81
2023/06/21 06:02:46;;;;;;;;;;;24.20;57.20;;;;;;6226058;22;19939;-83
2023/06/21 06:05:12;;;;;;;;;;;24.30;57.20;;;;;;6250906;22;20301;-79
2023/06/21 06:07:38;;;;;;;;;;;24.30;56.60;;;;;;6225662;22;19915;-80
2023/06/21 06:10:04;;;;;;;;;;;24.50;56.80;;;;;;6277801;22;19915;-79
2023/06/21 06:12:30;;;;;;;;;;;24.60;55.90;;;;;;6277774;22;19907;-82
2023/06/21 06:14:56;;;;;;;;;;;24.70;55.70;;;;;;6251220;22;19915;-82
2023/06/21 06:17:22;;;;;;;;;;;24.90;56.00;;;;;;6277277;22;20237;-81
2023/06/21 06:19:48;;;;;;;;;;;25.00;55.10;;;;;;6251417;22;19941;-79
2023/06/21 06:22:14;;;;;;;;;;;25.10;55.50;;;;;;6225179;22;20341;-83
2023/06/21 06:24:40;;;;;;;;;;;25.20;54.50;;;;;;6251113;22;19991;-80
2023/06/21 06:27:06;;;;;;;;;;;25.30;54.10;;;;;;6250257;22;20299;-79
2023/06/21 06:29:32;;;;;;;;;;;25.50;53.70;;;;;;6250875;22;19922;-81
2023/06/21 06:31:58;;;;;;;;;;;25.70;53.40;;;;;;6250482;22;19978;-81
2023/06/21 06:34:24;;;;;;;;;;;25.80;53.30;;;;;;6225364;22;19965;-82
2023/06/21 06:36:50;;;;;;;;;;;26.00;53.60;;;;;;6250298;22;19911;-80
2023/06/21 06:39:15;;;;;;;;;;;26.10;53.60;;;;;;6250878;22;19949;-83
2023/06/21 06:41:41;;;;;;;;;;;26.20;53.40;;;;;;6250164;22;19907;-80
2023/06/21 06:44:07;;;;;;;;;;;26.30;53.10;;;;;;6225450;22;19975;-84
2023/06/21 06:46:34;;;;;;;;;;;26.40;52.80;;;;;;6249695;22;19911;-83
2023/06/21 06:48:59;;;;;;;;;;;26.50;52.60;;;;;;6250512;22;19961;-80
2023/06/21 06:51:26;;;;;;;;;;;26.60;52.40;;;;;;6250160;22;19907;-81
2023/06/21 06:53:52;;;;;;;;;;;26.70;52.50;;;;;;6250655;22;19915;-83
2023/06/21 06:56:18;;;;;;;;;;;26.80;51.80;;;;;;6250099;22;21769;-79
2023/06/21 06:58:43;;;;;;;;;;;26.90;52.00;;;;;;6250357;22;19943;-83
2023/06/21 07:01:10;;;;;;;;;;;27.00;52.40;;;;;;6250033;22;20312;-83
2023/06/21 07:03:36;;;;;;;;;;;27.10;52.30;;;;;;6250601;22;19915;-82
2023/06/21 07:06:02;;;;;;;;;;;27.30;52.20;;;;;;6249986;22;19911;-86
2023/06/21 07:08:28;;;;;;;;;;;27.50;51.90;;;;;;6225042;22;20263;-80
2023/06/21 07:10:54;;;;;;;;;;;27.60;51.30;;;;;;6224515;22;19918;-81
2023/06/21 07:13:21;;;;;;;;;;;27.70;51.10;;;;;;6225244;22;19926;-84
2023/06/21 07:15:47;;;;;;;;;;;27.80;50.30;;;;;;6225091;22;19957;-80
2023/06/21 07:18:13;;;;;;;;;;;27.90;50.20;;;;;;6224884;22;19907;-80
2023/06/21 07:20:39;;;;;;;;;;;28.00;50.30;;;;;;6224556;22;20308;-81
2023/06/21 07:23:05;;;;;;;;;;;28.10;50.20;;;;;;6224844;22;19908;-84
2023/06/21 07:25:31;;;;;;;;;;;28.30;49.70;;;;;;6250019;22;19911;-82
2023/06/21 07:27:57;;;;;;;;;;;28.30;49.30;;;;;;6250253;22;19907;-82
2023/06/21 07:30:23;;;;;;;;;;;28.30;48.90;;;;;;6250228;22;19915;-82
2023/06/21 07:32:50;;;;;;;;;;;28.40;48.70;;;;;;6224895;22;19911;-80
2023/06/21 07:35:16;;;;;;;;;;;28.40;48.00;;;;;;6249857;22;19957;-84
2023/06/21 07:37:43;;;;;;;;;;;28.50;47.40;;;;;;6249856;22;20218;-80
2023/06/21 07:40:10;;;;;;;;;;;28.50;47.40;;;;;;6249741;22;19911;-81
2023/06/21 07:42:37;;;;;;;;;;;28.60;47.20;;;;;;6224935;22;19915;-79
2023/06/21 07:45:04;;;;;;;;;;;28.80;46.80;;;;;;6250165;22;19918;-84
2023/06/21 07:47:30;;;;;;;;;;;28.90;46.20;;;;;;6249891;22;19911;-79
2023/06/21 07:49:59;;;;;;;;;;;29.00;45.90;;;;;;6224678;22;20336;-80
2023/06/21 07:52:25;;;;;;;;;;;29.10;46.20;;;;;;6249847;22;19913;-84
2023/06/21 07:54:51;;;;;;;;;;;29.20;46.40;;;;;;6277496;22;19919;-81
2023/06/21 07:57:17;;;;;;;;;;;29.30;46.40;;;;;;6249344;22;19907;-85
2023/06/21 07:59:44;;;;;;;;;;;29.40;45.30;;;;;;6250410;22;20365;-87
2023/06/21 08:02:10;;;;;;;;;;;29.30;44.40;;;;;;6276421;22;19982;-86
2023/06/21 08:04:37;;;;;;;;;;;29.40;45.60;;;;;;6250049;22;19919;-83
2023/06/21 08:07:03;;;;;;;;;;;29.40;45.00;;;;;;6249724;22;19907;-85
2023/06/21 08:09:29;;;;;;;;;;;29.50;44.60;;;;;;6250234;22;20232;-83
2023/06/21 08:11:55;;;;;;;;;;;29.70;45.00;;;;;;6224284;22;19911;-86
2023/06/21 08:14:21;;;;;;;;;;;29.80;44.80;;;;;;6250325;22;19923;-80
2023/06/21 08:16:47;;;;;;;;;;;29.90;44.90;;;;;;6224202;22;19971;-87
2023/06/21 08:19:13;;;;;;;;;;;30.00;44.70;;;;;;6224742;22;19922;-83
2023/06/21 08:21:39;;;;;;;;;;;30.20;44.10;;;;;;6224421;22;19907;-85
2023/06/21 08:24:05;;;;;;;;;;;30.30;44.00;;;;;;6225109;22;19915;-82
2023/06/21 08:26:31;;;;;;;;;;;30.40;43.50;;;;;;6249660;22;19914;-82
2023/06/21 08:28:57;;;;;;;;;;;30.60;43.20;;;;;;6224935;22;20112;-82
2023/06/21 08:31:23;;;;;;;;;;;30.70;42.70;;;;;;6249827;22;19982;-85
2023/06/21 08:33:59;;;;;;;;;;;30.80;42.50;;;;;;6224461;22;19930;-84
2023/06/21 08:36:26;;;;;;;;;;;30.90;42.00;;;;;;6224299;22;19994;-81
2023/06/21 08:38:52;;;;;;;;;;;30.90;41.40;;;;;;6224627;22;19915;-81
2023/06/21 08:41:18;;;;;;;;;;;31.10;41.40;;;;;;6249619;22;19930;-82
2023/06/21 08:43:44;;;;;;;;;;;31.20;41.00;;;;;;6224501;22;19915;-80
2023/06/21 08:46:10;;;;;;;;;;;31.40;40.80;;;;;;6249035;22;19991;-84
2023/06/21 08:48:37;;;;;;;;;;;31.50;40.80;;;;;;6249903;22;19982;-81
2023/06/21 08:51:06;;;;;;;;;;;31.60;40.10;;;;;;6249869;22;19907;-86
2023/06/21 08:53:44;;;;;;;;;;;31.70;39.80;;;;;;6249923;22;19915;-85
2023/06/21 08:56:12;;;;;;;;;;;31.80;39.30;;;;;;6249372;22;19957;-81
2023/06/21 08:59:12;;;;;;;;;;;31.90;39.00;;;;;;6249599;22;19919;-84
2023/06/21 09:02:02;;;;;;;;;;;32.00;39.40;;;;;;6249229;22;20282;-81
2023/06/21 09:04:32;;;;;;;;;;;32.20;39.30;;;;;;6277236;22;19916;-80
2023/06/21 09:06:58;;;;;;;;;;;32.20;38.90;;;;;;6249275;22;20320;-81
2023/06/21 09:09:25;;;;;;;;;;;32.30;38.90;;;;;;6226577;22;19915;-80
2023/06/21 09:11:52;;;;;;;;;;;32.50;38.80;;;;;;6225713;22;19921;-82
2023/06/21 09:14:20;;;;;;;;;;;32.60;37.20;;;;;;6226389;22;20328;-80
2023/06/21 09:16:46;;;;;;;;;;;32.60;37.40;;;;;;6251272;22;19989;-79
2023/06/21 09:19:14;;;;;;;;;;;32.70;36.90;;;;;;6251778;22;19922;-81
2023/06/21 09:21:42;;;;;;;;;;;32.70;37.30;;;;;;6251291;22;19994;-80
2023/06/21 09:24:08;;;;;;;;;;;32.80;37.30;;;;;;6226392;22;19922;-80
2023/06/21 09:26:36;;;;;;;;;;;32.80;36.60;;;;;;6225864;22;19915;-87
2023/06/21 09:29:02;;;;;;;;;;;32.90;36.90;;;;;;6251652;22;20269;-81
2023/06/21 09:31:28;;;;;;;;;;;33.10;37.40;;;;;;6225893;22;19919;-85
2023/06/21 09:33:55;;;;;;;;;;;33.30;38.00;;;;;;6278528;22;20008;-82
2023/06/21 09:36:20;;;;;;;;;;;33.60;36.80;;;;;;6226116;22;19938;-81
2023/06/21 09:38:46;;;;;;;;;;;33.70;36.40;;;;;;6251496;22;19914;-81
2023/06/21 09:46:46;;;;;;;;;;;34.40;35.90;;;;;;6192359;23;19950;-83
2023/06/21 09:49:12;;;;;;;;;;;34.90;35.20;;;;;;6189929;23;19908;-85
2023/06/21 09:51:58;;;;;;;;;;;35.30;34.90;;;;;;6188562;23;20320;-84
2023/06/21 09:54:24;;;;;;;;;;;35.80;34.00;;;;;;6215113;23;19915;-82
2023/06/21 09:56:50;;;;;;;;;;;36.50;34.10;;;;;;6188925;23;19916;-83
2023/06/21 09:59:18;;;;;;;;;;;37.20;32.90;;;;;;6189385;23;20317;-82
2023/06/21 10:04:30;;;;;;;;;;;38.30;31.00;;;;;;6193727;23;19982;-82
2023/06/21 10:06:55;;;;;;;;;;;39.00;30.50;;;;;;6188610;23;19927;-87
2023/06/21 10:09:22;;;;;;;;;;;39.60;30.30;;;;;;6189275;23;20407;-82
2023/06/21 10:11:49;;;;;;;;;;;40.20;29.70;;;;;;6188344;23;19920;-81
2023/06/21 10:14:33;;;;;;;;;;;40.80;28.70;;;;;;6230146;22;19907;-82
2023/06/21 10:17:01;;;;;;;;;;;41.40;28.20;;;;;;6250011;22;19919;-83
2023/06/21 10:19:29;;;;;;;;;;;41.90;27.70;;;;;;6277711;22;19929;-81
2023/06/21 10:22:14;;;;;;;;;;;42.20;25.50;;;;;;6225380;22;19952;-81
2023/06/21 10:25:01;;;;;;;;;;;42.50;24.70;;;;;;6250789;22;19907;-79
2023/06/21 10:27:27;;;;;;;;;;;42.90;25.40;;;;;;6250301;22;19922;-81
2023/06/21 10:29:57;;;;;;;;;;;43.00;24.00;;;;;;6225222;22;19908;-81
2023/06/21 10:32:43;;;;;;;;;;;43.50;24.70;;;;;;6250972;22;20276;-80
2023/06/21 10:35:28;;;;;;;;;;;44.10;24.60;;;;;;6250044;22;19907;-82
2023/06/21 10:38:31;;;;;;;;;;;44.60;22.90;;;;;;6250461;22;19907;-80
2023/06/21 10:40:58;;;;;;;;;;;45.00;23.30;;;;;;6277316;22;20305;-82
2023/06/21 10:43:24;;;;;;;;;;;45.60;23.00;;;;;;6250503;22;19907;-82
2023/06/21 10:45:50;;;;;;;;;;;46.10;22.80;;;;;;6224768;22;20236;-82
2023/06/21 10:48:17;;;;;;;;;;;46.50;21.10;;;;;;6245307;23;20130;-80
2023/06/21 10:50:43;;;;;;;;;;;46.30;20.40;;;;;;6244842;23;19922;-82
2023/06/21 10:53:11;;;;;;;;;;;46.70;20.70;;;;;;6245394;23;19914;-81
2023/06/21 10:55:39;;;;;;;;;;;47.10;20.30;;;;;;6219180;23;19927;-80
2023/06/21 10:58:06;;;;;;;;;;;47.40;19.90;;;;;;6245144;23;19914;-80
2023/06/21 11:00:32;;;;;;;;;;;47.80;19.60;;;;;;6244749;23;19951;-80
2023/06/21 11:02:58;;;;;;;;;;;48.20;18.90;;;;;;6219724;23;19911;-82
2023/06/21 11:05:25;;;;;;;;;;;48.80;19.40;;;;;;6244655;22;19958;-80
2023/06/21 11:08:10;;;;;;;;;;;49.20;19.50;;;;;;6219839;23;19907;-80
2023/06/21 11:11:05;;;;;;;;;;;49.60;19.00;;;;;;6244710;22;20247;-80
2023/06/21 11:13:36;;;;;;;;;;;50.10;18.80;;;;;;6246295;23;19935;-80
2023/06/21 11:16:13;;;;;;;;;;;50.40;18.40;;;;;;6244811;23;20295;-81
2023/06/21 11:18:39;;;;;;;;;;;50.40;17.20;;;;;;6243850;23;19935;-83
2023/06/21 11:21:06;;;;;;;;;;;50.80;17.50;;;;;;6219191;23;19916;-83
2023/06/21 11:24:05;;;;;;;;;;;51.00;17.00;;;;;;6244996;23;19954;-80
2023/06/21 11:26:52;;;;;;;;;;;50.90;15.90;;;;;;6246295;23;19922;-80
2023/06/21 11:29:18;;;;;;;;;;;51.30;16.70;;;;;;6244989;22;19911;-83
2023/06/21 11:31:43;;;;;;;;;;;51.60;16.90;;;;;;6245914;23;19923;-81
2023/06/21 11:34:23;;;;;;;;;;;51.60;16.30;;;;;;6245044;23;19907;-82
2023/06/21 11:36:49;;;;;;;;;;;52.00;16.10;;;;;;6219237;23;20318;-80
2023/06/21 11:39:15;;;;;;;;;;;52.20;16.00;;;;;;6219461;23;20420;-80
2023/06/21 11:42:00;;;;;;;;;;;52.50;16.30;;;;;;6245804;22;19938;-80
2023/06/21 11:44:28;;;;;;;;;;;52.90;16.30;;;;;;6244920;23;19954;-80
2023/06/21 11:47:34;;;;;;;;;;;53.20;16.20;;;;;;6249076;22;19911;-80
2023/06/21 11:50:01;;;;;;;;;;;53.50;15.10;;;;;;6276722;22;19915;-82
2023/06/21 11:52:45;;;;;;;;;;;53.70;15.70;;;;;;6224187;22;20247;-82
2023/06/21 11:55:13;;;;;;;;;;;53.80;15.40;;;;;;6249384;22;19907;-82
2023/06/21 11:57:57;;;;;;;;;;;54.00;15.40;;;;;;6249884;22;19982;-79
2023/06/21 12:00:24;;;;;;;;;;;54.00;15.50;;;;;;6249335;22;20505;-80
2023/06/21 12:02:49;;;;;;;;;;;54.10;14.30;;;;;;6249743;22;19919;-80
2023/06/21 12:05:15;;;;;;;;;;;54.20;14.90;;;;;;6249368;22;20037;-81
2023/06/21 12:07:41;;;;;;;;;;;54.20;14.90;;;;;;6250028;22;19922;-81
2023/06/21 12:10:11;;;;;;;;;;;53.80;14.40;;;;;;6249478;22;19965;-80
2023/06/21 12:12:37;;;;;;;;;;;53.70;14.50;;;;;;6249807;22;19916;-81
2023/06/21 12:15:24;;;;;;;;;;;54.00;15.10;;;;;;6249668;22;19907;-78
2023/06/21 12:17:52;;;;;;;;;;;54.30;14.60;;;;;;6275961;22;19911;-80
2023/06/21 12:20:18;;;;;;;;;;;54.30;14.60;;;;;;6249434;22;20329;-79
2023/06/21 12:22:47;;;;;;;;;;;54.50;15.00;;;;;;6224232;22;19928;-79
2023/06/21 12:25:13;;;;;;;;;;;54.50;14.00;;;;;;6249162;22;20295;-79
2023/06/21 12:28:12;;;;;;;;;;;54.60;14.30;;;;;;6249740;22;19907;-81
2023/06/21 12:30:57;;;;;;;;;;;54.60;14.40;;;;;;6249119;22;19919;-80
2023/06/21 12:33:43;;;;;;;;;;;54.40;14.20;;;;;;6249859;22;19938;-81
2023/06/21 12:36:26;;;;;;;;;;;54.30;14.80;;;;;;6249445;22;20310;-80
2023/06/21 12:39:15;;;;;;;;;;;54.20;14.20;;;;;;6249472;22;19914;-80
2023/06/21 12:41:42;;;;;;;;;;;54.00;15.10;;;;;;6249754;22;19919;-81
2023/06/21 12:44:30;;;;;;;;;;;53.80;13.90;;;;;;6226343;22;19918;-80
2023/06/21 12:46:56;;;;;;;;;;;53.10;14.80;;;;;;6251600;22;19993;-81
2023/06/21 12:49:22;;;;;;;;;;;52.80;14.50;;;;;;6226305;22;19921;-81
2023/06/21 12:51:49;;;;;;;;;;;52.20;14.50;;;;;;6225617;22;20328;-81
2023/06/21 12:54:18;;;;;;;;;;;51.70;15.60;;;;;;6251660;22;19978;-80
2023/06/21 12:57:02;;;;;;;;;;;51.00;16.30;;;;;;6251138;22;19918;-81
2023/06/21 12:59:29;;;;;;;;;;;50.40;17.40;;;;;;6251584;22;19911;-81
2023/06/21 13:01:57;;;;;;;;;;;49.60;18.30;;;;;;6251132;22;19918;-81
2023/06/21 13:04:23;;;;;;;;;;;48.60;18.10;;;;;;6226836;22;19981;-80
2023/06/21 13:06:49;;;;;;;;;;;47.90;18.00;;;;;;6250896;22;20337;-79
2023/06/21 13:09:15;;;;;;;;;;;47.30;19.50;;;;;;6251590;22;19956;-81
2023/06/21 13:11:41;;;;;;;;;;;46.80;20.10;;;;;;6225409;22;19911;-81
2023/06/21 13:14:08;;;;;;;;;;;46.30;20.70;;;;;;6251346;22;19914;-80
2023/06/21 13:16:34;;;;;;;;;;;45.90;21.00;;;;;;6250931;22;19957;-82
2023/06/21 13:19:00;;;;;;;;;;;45.60;21.30;;;;;;6225830;22;20267;-79
2023/06/21 13:21:27;;;;;;;;;;;45.30;21.50;;;;;;6251182;22;19989;-83
2023/06/21 13:23:54;;;;;;;;;;;45.00;22.20;;;;;;6251278;22;19907;-81
2023/06/21 13:26:21;;;;;;;;;;;44.70;22.30;;;;;;6225926;22;19921;-81
2023/06/21 13:28:47;;;;;;;;;;;44.50;22.70;;;;;;6251214;22;19911;-81
2023/06/21 13:31:13;;;;;;;;;;;44.30;23.00;;;;;;6251096;22;20332;-80
2023/06/21 13:33:40;;;;;;;;;;;44.10;23.40;;;;;;6251212;22;19993;-80
2023/06/21 13:36:06;;;;;;;;;;;44.00;23.40;;;;;;6251000;22;19911;-80
2023/06/21 13:38:33;;;;;;;;;;;43.80;23.50;;;;;;6251032;22;19933;-82
2023/06/21 13:40:59;;;;;;;;;;;43.70;23.60;;;;;;6250913;22;19978;-81
2023/06/21 13:43:25;;;;;;;;;;;43.40;23.30;;;;;;6225673;22;19942;-80
2023/06/21 13:45:51;;;;;;;;;;;43.30;23.70;;;;;;6250794;22;19918;-80
2023/06/21 13:48:17;;;;;;;;;;;43.20;23.70;;;;;;6245027;23;19911;-81
2023/06/21 13:50:43;;;;;;;;;;;43.10;23.90;;;;;;6247242;23;19922;-79
2023/06/21 13:53:10;;;;;;;;;;;42.90;24.20;;;;;;6219656;23;19959;-82
2023/06/21 13:55:36;;;;;;;;;;;42.80;24.20;;;;;;6245493;22;19922;-79
2023/06/21 13:58:02;;;;;;;;;;;42.70;24.00;;;;;;6220421;23;19912;-80
2023/06/21 14:00:29;;;;;;;;;;;42.60;24.80;;;;;;6220313;23;20002;-84
2023/06/21 14:02:55;;;;;;;;;;;42.40;25.00;;;;;;6219489;23;19908;-85
2023/06/21 14:05:22;;;;;;;;;;;42.20;24.80;;;;;;6244921;22;19915;-85
2023/06/21 14:07:49;;;;;;;;;;;42.00;24.90;;;;;;6220130;23;19915;-81
2023/06/21 14:10:15;;;;;;;;;;;41.80;24.90;;;;;;6220364;23;19922;-83
2023/06/21 14:12:42;;;;;;;;;;;41.60;24.60;;;;;;6221004;23;19907;-83
2023/06/21 14:15:09;;;;;;;;;;;41.50;24.50;;;;;;6245451;22;19927;-84
2023/06/21 14:17:35;;;;;;;;;;;41.40;24.80;;;;;;6245698;23;19935;-83
2023/06/21 14:20:06;;;;;;;;;;;41.40;25.60;;;;;;6220747;23;19915;-87
2023/06/21 14:22:32;;;;;;;;;;;41.40;25.40;;;;;;6221412;23;19908;-84
2023/06/21 14:24:59;;;;;;;;;;;41.30;25.10;;;;;;6220570;23;19919;-84
2023/06/21 14:27:25;;;;;;;;;;;41.20;25.70;;;;;;6245382;23;19961;-83
2023/06/21 14:29:54;;;;;;;;;;;41.10;25.70;;;;;;6220511;23;19916;-83
2023/06/21 14:32:21;;;;;;;;;;;41.00;25.80;;;;;;6245357;23;20347;-84
2023/06/21 14:34:48;;;;;;;;;;;40.90;25.60;;;;;;6245744;22;19916;-83
2023/06/21 14:37:14;;;;;;;;;;;40.80;25.70;;;;;;6219790;23;19912;-83
2023/06/21 14:39:40;;;;;;;;;;;40.80;25.40;;;;;;6247227;22;19915;-85
2023/06/21 14:42:07;;;;;;;;;;;40.60;24.80;;;;;;6245215;23;19915;-83